sensor_id;sensor_type;location;lat;lon;timestamp;P1;durP1;ratioP1;P2;durP2;ratioP2
65982;SDS011;52740;40.620;-8.640;2022-07-22T00:00:46;17.88;;;6.43;;
65982;SDS011;52740;40.620;-8.640;2022-07-22T00:02:47;19.05;;;5.88;;
65982;SDS011;52740;40.620;-8.640;2022-07-22T00:04:48;20.88;;;7.65;;
65982;SDS011;52740;40.620;-8.640;2022-07-22T00:06:49;12.93;;;5.55;;
65982;SDS011;52740;40.620;-8.640;2022-07-22T00:08:49;21.63;;;6.47;;
65982;SDS011;52740;40.620;-8.640;2022-07-22T00:10:52;21.67;;;6.10;;
65982;SDS011;52740;40.620;-8.640;2022-07-22T00:12:53;20.60;;;7.22;;
65982;SDS011;52740;40.620;-8.640;2022-07-22T00:14:54;17.40;;;6.22;;
65982;SDS011;52740;40.620;-8.640;2022-07-22T00:16:54;14.40;;;5.70;;
65982;SDS011;52740;40.620;-8.640;2022-07-22T00:18:55;22.77;;;8.52;;
65982;SDS011;52740;40.620;-8.640;2022-07-22T00:20:56;20.83;;;6.85;;
65982;SDS011;52740;40.620;-8.640;2022-07-22T00:22:56;25.58;;;7.45;;
65982;SDS011;52740;40.620;-8.640;2022-07-22T00:24:57;17.55;;;7.38;;
65982;SDS011;52740;40.620;-8.640;2022-07-22T00:26:58;19.35;;;6.72;;
65982;SDS011;52740;40.620;-8.640;2022-07-22T00:28:59;17.55;;;6.57;;
65982;SDS011;52740;40.620;-8.640;2022-07-22T00:31:01;20.45;;;6.80;;
65982;SDS011;52740;40.620;-8.640;2022-07-22T00:33:02;24.48;;;7.13;;
65982;SDS011;52740;40.620;-8.640;2022-07-22T00:35:04;17.13;;;6.60;;
65982;SDS011;52740;40.620;-8.640;2022-07-22T00:37:05;22.65;;;7.28;;
65982;SDS011;52740;40.620;-8.640;2022-07-22T00:39:06;22.70;;;8.57;;
65982;SDS011;52740;40.620;-8.640;2022-07-22T00:41:07;17.83;;;6.80;;
65982;SDS011;52740;40.620;-8.640;2022-07-22T00:43:08;28.90;;;6.68;;
65982;SDS011;52740;40.620;-8.640;2022-07-22T00:45:08;14.80;;;7.78;;
65982;SDS011;52740;40.620;-8.640;2022-07-22T00:47:10;16.20;;;6.07;;
65982;SDS011;52740;40.620;-8.640;2022-07-22T00:49:11;20.05;;;6.78;;
65982;SDS011;52740;40.620;-8.640;2022-07-22T00:51:12;18.67;;;7.65;;
65982;SDS011;52740;40.620;-8.640;2022-07-22T00:53:12;17.13;;;6.45;;
65982;SDS011;52740;40.620;-8.640;2022-07-22T00:55:13;17.40;;;7.10;;
65982;SDS011;52740;40.620;-8.640;2022-07-22T00:57:14;19.98;;;7.43;;
65982;SDS011;52740;40.620;-8.640;2022-07-22T00:59:15;21.70;;;7.28;;
65982;SDS011;52740;40.620;-8.640;2022-07-22T01:01:16;23.73;;;7.18;;
65982;SDS011;52740;40.620;-8.640;2022-07-22T01:03:17;17.40;;;7.25;;
65982;SDS011;52740;40.620;-8.640;2022-07-22T01:05:19;20.02;;;8.30;;
65982;SDS011;52740;40.620;-8.640;2022-07-22T01:07:20;19.83;;;6.50;;
65982;SDS011;52740;40.620;-8.640;2022-07-22T01:09:20;25.75;;;7.72;;
65982;SDS011;52740;40.620;-8.640;2022-07-22T01:11:21;19.52;;;6.82;;
65982;SDS011;52740;40.620;-8.640;2022-07-22T01:13:23;19.98;;;6.63;;
65982;SDS011;52740;40.620;-8.640;2022-07-22T01:15:23;18.45;;;8.23;;
65982;SDS011;52740;40.620;-8.640;2022-07-22T01:17:24;19.10;;;8.32;;
65982;SDS011;52740;40.620;-8.640;2022-07-22T01:19:25;18.17;;;8.00;;
65982;SDS011;52740;40.620;-8.640;2022-07-22T01:21:25;15.40;;;6.85;;
65982;SDS011;52740;40.620;-8.640;2022-07-22T01:23:27;21.08;;;8.00;;
65982;SDS011;52740;40.620;-8.640;2022-07-22T01:25:28;15.68;;;7.60;;
65982;SDS011;52740;40.620;-8.640;2022-07-22T01:27:29;21.20;;;8.27;;
65982;SDS011;52740;40.620;-8.640;2022-07-22T01:29:30;24.15;;;7.40;;
65982;SDS011;52740;40.620;-8.640;2022-07-22T01:31:31;14.77;;;6.30;;
65982;SDS011;52740;40.620;-8.640;2022-07-22T01:33:31;17.20;;;6.88;;
65982;SDS011;52740;40.620;-8.640;2022-07-22T01:35:34;21.35;;;7.13;;
65982;SDS011;52740;40.620;-8.640;2022-07-22T01:37:35;25.60;;;7.45;;
65982;SDS011;52740;40.620;-8.640;2022-07-22T01:39:37;19.10;;;6.55;;
65982;SDS011;52740;40.620;-8.640;2022-07-22T01:41:37;17.27;;;7.93;;
65982;SDS011;52740;40.620;-8.640;2022-07-22T01:43:42;16.92;;;7.63;;
65982;SDS011;52740;40.620;-8.640;2022-07-22T01:45:43;25.38;;;7.25;;
65982;SDS011;52740;40.620;-8.640;2022-07-22T01:47:45;18.95;;;6.97;;
65982;SDS011;52740;40.620;-8.640;2022-07-22T01:49:46;25.58;;;7.47;;
65982;SDS011;52740;40.620;-8.640;2022-07-22T01:51:47;26.27;;;7.28;;
65982;SDS011;52740;40.620;-8.640;2022-07-22T01:53:48;15.95;;;6.50;;
65982;SDS011;52740;40.620;-8.640;2022-07-22T01:55:49;18.52;;;7.28;;
65982;SDS011;52740;40.620;-8.640;2022-07-22T01:57:52;18.35;;;7.60;;
65982;SDS011;52740;40.620;-8.640;2022-07-22T01:59:59;18.52;;;7.13;;
65982;SDS011;52740;40.620;-8.640;2022-07-22T02:02:00;12.25;;;6.45;;
65982;SDS011;52740;40.620;-8.640;2022-07-22T02:04:01;23.20;;;7.00;;
65982;SDS011;52740;40.620;-8.640;2022-07-22T02:06:03;14.52;;;6.90;;
65982;SDS011;52740;40.620;-8.640;2022-07-22T02:08:05;17.42;;;6.85;;
65982;SDS011;52740;40.620;-8.640;2022-07-22T02:10:31;20.65;;;6.80;;
65982;SDS011;52740;40.620;-8.640;2022-07-22T02:12:33;28.00;;;8.40;;
65982;SDS011;52740;40.620;-8.640;2022-07-22T02:14:34;17.77;;;7.47;;
65982;SDS011;52740;40.620;-8.640;2022-07-22T02:16:36;26.45;;;8.27;;
65982;SDS011;52740;40.620;-8.640;2022-07-22T02:18:39;25.40;;;8.38;;
65982;SDS011;52740;40.620;-8.640;2022-07-22T02:20:42;19.52;;;6.72;;
65982;SDS011;52740;40.620;-8.640;2022-07-22T02:22:43;21.52;;;8.30;;
65982;SDS011;52740;40.620;-8.640;2022-07-22T02:24:45;18.35;;;7.50;;
65982;SDS011;52740;40.620;-8.640;2022-07-22T02:26:47;24.85;;;7.85;;
65982;SDS011;52740;40.620;-8.640;2022-07-22T02:28:47;18.42;;;6.65;;
65982;SDS011;52740;40.620;-8.640;2022-07-22T02:30:48;18.35;;;6.65;;
65982;SDS011;52740;40.620;-8.640;2022-07-22T02:32:50;21.33;;;7.90;;
65982;SDS011;52740;40.620;-8.640;2022-07-22T02:34:51;15.25;;;7.00;;
65982;SDS011;52740;40.620;-8.640;2022-07-22T02:36:52;21.13;;;7.07;;
65982;SDS011;52740;40.620;-8.640;2022-07-22T02:38:55;20.92;;;7.13;;
65982;SDS011;52740;40.620;-8.640;2022-07-22T02:40:57;17.85;;;6.78;;
65982;SDS011;52740;40.620;-8.640;2022-07-22T02:42:57;16.15;;;7.63;;
65982;SDS011;52740;40.620;-8.640;2022-07-22T02:44:58;19.58;;;7.05;;
65982;SDS011;52740;40.620;-8.640;2022-07-22T02:46:59;22.30;;;9.07;;
65982;SDS011;52740;40.620;-8.640;2022-07-22T02:49:05;18.25;;;7.03;;
65982;SDS011;52740;40.620;-8.640;2022-07-22T02:51:06;15.82;;;6.90;;
65982;SDS011;52740;40.620;-8.640;2022-07-22T02:53:07;19.17;;;6.65;;
65982;SDS011;52740;40.620;-8.640;2022-07-22T02:55:11;20.77;;;7.65;;
65982;SDS011;52740;40.620;-8.640;2022-07-22T02:57:12;17.58;;;7.15;;
65982;SDS011;52740;40.620;-8.640;2022-07-22T02:59:13;17.35;;;7.45;;
65982;SDS011;52740;40.620;-8.640;2022-07-22T03:01:17;17.70;;;6.80;;
65982;SDS011;52740;40.620;-8.640;2022-07-22T03:03:25;28.88;;;7.05;;
65982;SDS011;52740;40.620;-8.640;2022-07-22T03:05:26;17.08;;;6.85;;
65982;SDS011;52740;40.620;-8.640;2022-07-22T03:07:37;17.35;;;6.57;;
65982;SDS011;52740;40.620;-8.640;2022-07-22T03:09:37;18.80;;;7.55;;
65982;SDS011;52740;40.620;-8.640;2022-07-22T03:11:38;14.15;;;6.63;;
65982;SDS011;52740;40.620;-8.640;2022-07-22T03:13:39;18.00;;;7.68;;
65982;SDS011;52740;40.620;-8.640;2022-07-22T03:15:40;19.83;;;6.45;;
65982;SDS011;52740;40.620;-8.640;2022-07-22T03:17:41;18.52;;;7.05;;
65982;SDS011;52740;40.620;-8.640;2022-07-22T03:19:41;16.83;;;6.72;;
65982;SDS011;52740;40.620;-8.640;2022-07-22T03:21:42;20.75;;;6.63;;
65982;SDS011;52740;40.620;-8.640;2022-07-22T03:23:43;20.48;;;6.75;;
65982;SDS011;52740;40.620;-8.640;2022-07-22T03:25:44;20.92;;;7.70;;
65982;SDS011;52740;40.620;-8.640;2022-07-22T03:27:45;19.25;;;7.03;;
65982;SDS011;52740;40.620;-8.640;2022-07-22T03:29:46;25.10;;;8.18;;
65982;SDS011;52740;40.620;-8.640;2022-07-22T03:31:47;20.00;;;7.05;;
65982;SDS011;52740;40.620;-8.640;2022-07-22T03:33:48;13.85;;;7.45;;
65982;SDS011;52740;40.620;-8.640;2022-07-22T03:35:49;17.45;;;6.63;;
65982;SDS011;52740;40.620;-8.640;2022-07-22T03:37:49;19.20;;;7.70;;
65982;SDS011;52740;40.620;-8.640;2022-07-22T03:39:51;18.67;;;7.75;;
65982;SDS011;52740;40.620;-8.640;2022-07-22T03:41:52;24.48;;;8.07;;
65982;SDS011;52740;40.620;-8.640;2022-07-22T03:43:53;23.85;;;7.57;;
65982;SDS011;52740;40.620;-8.640;2022-07-22T03:45:54;20.95;;;7.43;;
65982;SDS011;52740;40.620;-8.640;2022-07-22T03:47:54;13.90;;;7.18;;
65982;SDS011;52740;40.620;-8.640;2022-07-22T03:49:58;30.80;;;9.23;;
65982;SDS011;52740;40.620;-8.640;2022-07-22T03:52:02;17.13;;;7.78;;
65982;SDS011;52740;40.620;-8.640;2022-07-22T03:54:04;16.67;;;7.80;;
65982;SDS011;52740;40.620;-8.640;2022-07-22T03:56:05;14.40;;;7.45;;
65982;SDS011;52740;40.620;-8.640;2022-07-22T03:58:07;17.17;;;7.28;;
65982;SDS011;52740;40.620;-8.640;2022-07-22T04:00:08;16.00;;;7.65;;
65982;SDS011;52740;40.620;-8.640;2022-07-22T04:02:17;15.20;;;7.32;;
65982;SDS011;52740;40.620;-8.640;2022-07-22T04:04:19;18.48;;;7.47;;
65982;SDS011;52740;40.620;-8.640;2022-07-22T04:06:20;27.90;;;7.68;;
65982;SDS011;52740;40.620;-8.640;2022-07-22T04:08:31;24.08;;;7.85;;
65982;SDS011;52740;40.620;-8.640;2022-07-22T04:10:31;19.08;;;7.85;;
65982;SDS011;52740;40.620;-8.640;2022-07-22T04:12:37;18.58;;;7.50;;
65982;SDS011;52740;40.620;-8.640;2022-07-22T04:14:54;21.05;;;7.95;;
65982;SDS011;52740;40.620;-8.640;2022-07-22T04:16:55;17.38;;;7.80;;
65982;SDS011;52740;40.620;-8.640;2022-07-22T04:18:56;19.98;;;7.55;;
65982;SDS011;52740;40.620;-8.640;2022-07-22T04:21:16;18.20;;;7.07;;
65982;SDS011;52740;40.620;-8.640;2022-07-22T04:23:28;24.25;;;7.57;;
65982;SDS011;52740;40.620;-8.640;2022-07-22T04:25:44;22.48;;;8.07;;
65982;SDS011;52740;40.620;-8.640;2022-07-22T04:27:46;14.70;;;7.38;;
65982;SDS011;52740;40.620;-8.640;2022-07-22T04:29:46;22.20;;;8.40;;
65982;SDS011;52740;40.620;-8.640;2022-07-22T04:31:48;18.77;;;8.20;;
65982;SDS011;52740;40.620;-8.640;2022-07-22T04:33:52;14.13;;;6.65;;
65982;SDS011;52740;40.620;-8.640;2022-07-22T04:35:53;19.48;;;7.95;;
65982;SDS011;52740;40.620;-8.640;2022-07-22T04:37:53;16.08;;;7.07;;
65982;SDS011;52740;40.620;-8.640;2022-07-22T04:39:54;24.67;;;7.50;;
65982;SDS011;52740;40.620;-8.640;2022-07-22T04:41:55;22.67;;;7.35;;
65982;SDS011;52740;40.620;-8.640;2022-07-22T04:43:57;19.10;;;7.07;;
65982;SDS011;52740;40.620;-8.640;2022-07-22T04:46:00;15.95;;;7.20;;
65982;SDS011;52740;40.620;-8.640;2022-07-22T04:48:06;15.45;;;7.47;;
65982;SDS011;52740;40.620;-8.640;2022-07-22T04:50:07;20.45;;;8.07;;
65982;SDS011;52740;40.620;-8.640;2022-07-22T04:52:08;18.63;;;7.75;;
65982;SDS011;52740;40.620;-8.640;2022-07-22T04:54:15;14.70;;;7.63;;
65982;SDS011;52740;40.620;-8.640;2022-07-22T04:56:18;19.00;;;7.88;;
65982;SDS011;52740;40.620;-8.640;2022-07-22T04:58:19;26.42;;;9.02;;
65982;SDS011;52740;40.620;-8.640;2022-07-22T05:00:21;22.48;;;8.43;;
65982;SDS011;52740;40.620;-8.640;2022-07-22T05:02:26;18.45;;;7.60;;
65982;SDS011;52740;40.620;-8.640;2022-07-22T05:04:27;17.70;;;7.72;;
65982;SDS011;52740;40.620;-8.640;2022-07-22T05:06:28;16.85;;;8.13;;
65982;SDS011;52740;40.620;-8.640;2022-07-22T05:08:29;15.75;;;7.57;;
65982;SDS011;52740;40.620;-8.640;2022-07-22T05:10:30;22.40;;;8.02;;
65982;SDS011;52740;40.620;-8.640;2022-07-22T05:12:32;23.15;;;8.57;;
65982;SDS011;52740;40.620;-8.640;2022-07-22T05:14:34;26.45;;;8.65;;
65982;SDS011;52740;40.620;-8.640;2022-07-22T05:16:35;16.45;;;7.45;;
65982;SDS011;52740;40.620;-8.640;2022-07-22T05:18:40;19.35;;;8.23;;
65982;SDS011;52740;40.620;-8.640;2022-07-22T05:20:43;15.95;;;7.40;;
65982;SDS011;52740;40.620;-8.640;2022-07-22T05:22:44;18.23;;;8.93;;
65982;SDS011;52740;40.620;-8.640;2022-07-22T05:24:54;24.17;;;8.48;;
65982;SDS011;52740;40.620;-8.640;2022-07-22T05:26:54;15.13;;;8.38;;
65982;SDS011;52740;40.620;-8.640;2022-07-22T05:28:57;15.63;;;8.55;;
65982;SDS011;52740;40.620;-8.640;2022-07-22T05:30:57;17.95;;;8.23;;
65982;SDS011;52740;40.620;-8.640;2022-07-22T05:33:00;18.25;;;8.00;;
65982;SDS011;52740;40.620;-8.640;2022-07-22T05:35:24;15.48;;;7.60;;
65982;SDS011;52740;40.620;-8.640;2022-07-22T05:37:25;21.92;;;8.15;;
65982;SDS011;52740;40.620;-8.640;2022-07-22T05:39:26;20.48;;;9.05;;
65982;SDS011;52740;40.620;-8.640;2022-07-22T05:41:27;17.48;;;8.00;;
65982;SDS011;52740;40.620;-8.640;2022-07-22T05:43:28;21.10;;;9.80;;
65982;SDS011;52740;40.620;-8.640;2022-07-22T05:45:29;18.05;;;8.32;;
65982;SDS011;52740;40.620;-8.640;2022-07-22T05:47:30;22.38;;;8.18;;
65982;SDS011;52740;40.620;-8.640;2022-07-22T05:49:30;19.75;;;8.65;;
65982;SDS011;52740;40.620;-8.640;2022-07-22T05:51:37;16.92;;;7.95;;
65982;SDS011;52740;40.620;-8.640;2022-07-22T05:53:38;16.83;;;8.38;;
65982;SDS011;52740;40.620;-8.640;2022-07-22T05:55:39;12.70;;;8.02;;
65982;SDS011;52740;40.620;-8.640;2022-07-22T05:57:39;16.55;;;8.38;;
65982;SDS011;52740;40.620;-8.640;2022-07-22T05:59:40;17.17;;;8.15;;
65982;SDS011;52740;40.620;-8.640;2022-07-22T06:01:41;23.25;;;9.10;;
65982;SDS011;52740;40.620;-8.640;2022-07-22T06:04:02;17.83;;;8.57;;
65982;SDS011;52740;40.620;-8.640;2022-07-22T06:06:04;14.48;;;8.10;;
65982;SDS011;52740;40.620;-8.640;2022-07-22T06:08:09;17.13;;;8.77;;
65982;SDS011;52740;40.620;-8.640;2022-07-22T06:10:19;16.83;;;7.80;;
65982;SDS011;52740;40.620;-8.640;2022-07-22T06:12:20;23.60;;;9.10;;
65982;SDS011;52740;40.620;-8.640;2022-07-22T06:14:21;15.48;;;8.10;;
65982;SDS011;52740;40.620;-8.640;2022-07-22T06:16:21;20.08;;;8.75;;
65982;SDS011;52740;40.620;-8.640;2022-07-22T06:18:26;21.00;;;8.85;;
65982;SDS011;52740;40.620;-8.640;2022-07-22T06:20:29;13.10;;;8.10;;
65982;SDS011;52740;40.620;-8.640;2022-07-22T06:22:30;20.67;;;8.90;;
65982;SDS011;52740;40.620;-8.640;2022-07-22T06:24:31;18.27;;;8.52;;
65982;SDS011;52740;40.620;-8.640;2022-07-22T06:26:31;21.67;;;8.98;;
65982;SDS011;52740;40.620;-8.640;2022-07-22T06:28:33;21.35;;;7.85;;
65982;SDS011;52740;40.620;-8.640;2022-07-22T06:30:34;14.45;;;8.38;;
65982;SDS011;52740;40.620;-8.640;2022-07-22T06:32:34;19.63;;;9.30;;
65982;SDS011;52740;40.620;-8.640;2022-07-22T06:34:36;18.60;;;8.52;;
65982;SDS011;52740;40.620;-8.640;2022-07-22T06:36:38;19.48;;;8.85;;
65982;SDS011;52740;40.620;-8.640;2022-07-22T06:38:39;20.58;;;8.52;;
65982;SDS011;52740;40.620;-8.640;2022-07-22T06:41:06;21.60;;;8.70;;
65982;SDS011;52740;40.620;-8.640;2022-07-22T06:43:18;19.13;;;9.30;;
65982;SDS011;52740;40.620;-8.640;2022-07-22T06:45:47;24.77;;;8.13;;
65982;SDS011;52740;40.620;-8.640;2022-07-22T06:48:14;18.23;;;9.52;;
65982;SDS011;52740;40.620;-8.640;2022-07-22T06:50:15;24.08;;;9.65;;
65982;SDS011;52740;40.620;-8.640;2022-07-22T06:52:16;15.90;;;8.40;;
65982;SDS011;52740;40.620;-8.640;2022-07-22T06:54:16;21.42;;;8.88;;
65982;SDS011;52740;40.620;-8.640;2022-07-22T06:56:17;15.18;;;8.73;;
65982;SDS011;52740;40.620;-8.640;2022-07-22T06:58:18;16.90;;;9.63;;
65982;SDS011;52740;40.620;-8.640;2022-07-22T07:00:19;25.92;;;9.70;;
65982;SDS011;52740;40.620;-8.640;2022-07-22T07:02:49;19.05;;;10.25;;
65982;SDS011;52740;40.620;-8.640;2022-07-22T07:04:50;26.83;;;9.38;;
65982;SDS011;52740;40.620;-8.640;2022-07-22T07:06:50;16.75;;;9.40;;
65982;SDS011;52740;40.620;-8.640;2022-07-22T07:09:06;14.90;;;9.50;;
65982;SDS011;52740;40.620;-8.640;2022-07-22T07:11:09;22.73;;;9.25;;
65982;SDS011;52740;40.620;-8.640;2022-07-22T07:13:09;15.90;;;9.48;;
65982;SDS011;52740;40.620;-8.640;2022-07-22T07:15:17;23.83;;;9.88;;
65982;SDS011;52740;40.620;-8.640;2022-07-22T07:17:18;17.85;;;9.38;;
65982;SDS011;52740;40.620;-8.640;2022-07-22T07:19:19;24.13;;;9.80;;
65982;SDS011;52740;40.620;-8.640;2022-07-22T07:21:20;20.70;;;9.70;;
65982;SDS011;52740;40.620;-8.640;2022-07-22T07:23:23;24.40;;;9.77;;
65982;SDS011;52740;40.620;-8.640;2022-07-22T07:25:24;22.25;;;9.77;;
65982;SDS011;52740;40.620;-8.640;2022-07-22T07:27:28;16.75;;;8.93;;
65982;SDS011;52740;40.620;-8.640;2022-07-22T07:29:30;20.02;;;9.02;;
65982;SDS011;52740;40.620;-8.640;2022-07-22T07:31:30;26.70;;;9.63;;
65982;SDS011;52740;40.620;-8.640;2022-07-22T07:33:34;20.35;;;9.75;;
65982;SDS011;52740;40.620;-8.640;2022-07-22T07:35:37;19.02;;;9.18;;
65982;SDS011;52740;40.620;-8.640;2022-07-22T07:37:38;21.73;;;10.27;;
65982;SDS011;52740;40.620;-8.640;2022-07-22T07:39:39;25.88;;;12.32;;
65982;SDS011;52740;40.620;-8.640;2022-07-22T07:41:43;25.70;;;12.10;;
65982;SDS011;52740;40.620;-8.640;2022-07-22T07:43:47;22.75;;;11.30;;
65982;SDS011;52740;40.620;-8.640;2022-07-22T07:45:48;28.10;;;13.13;;
65982;SDS011;52740;40.620;-8.640;2022-07-22T07:47:49;26.70;;;12.32;;
65982;SDS011;52740;40.620;-8.640;2022-07-22T07:49:53;31.40;;;13.05;;
65982;SDS011;52740;40.620;-8.640;2022-07-22T07:51:57;27.42;;;14.05;;
65982;SDS011;52740;40.620;-8.640;2022-07-22T07:53:58;26.98;;;14.07;;
65982;SDS011;52740;40.620;-8.640;2022-07-22T07:55:59;34.33;;;15.68;;
65982;SDS011;52740;40.620;-8.640;2022-07-22T07:58:00;28.98;;;14.80;;
65982;SDS011;52740;40.620;-8.640;2022-07-22T08:00:03;29.02;;;14.00;;
65982;SDS011;52740;40.620;-8.640;2022-07-22T08:02:13;33.33;;;15.90;;
65982;SDS011;52740;40.620;-8.640;2022-07-22T08:04:14;30.25;;;15.32;;
65982;SDS011;52740;40.620;-8.640;2022-07-22T08:06:15;29.15;;;15.25;;
65982;SDS011;52740;40.620;-8.640;2022-07-22T08:08:16;29.55;;;15.73;;
65982;SDS011;52740;40.620;-8.640;2022-07-22T08:10:18;28.50;;;15.00;;
65982;SDS011;52740;40.620;-8.640;2022-07-22T08:12:40;29.30;;;15.18;;
65982;SDS011;52740;40.620;-8.640;2022-07-22T08:15:04;34.90;;;17.63;;
65982;SDS011;52740;40.620;-8.640;2022-07-22T08:17:24;32.25;;;17.92;;
65982;SDS011;52740;40.620;-8.640;2022-07-22T08:19:25;35.28;;;17.63;;
65982;SDS011;52740;40.620;-8.640;2022-07-22T08:21:26;34.83;;;17.60;;
65982;SDS011;52740;40.620;-8.640;2022-07-22T08:23:32;42.40;;;19.30;;
65982;SDS011;52740;40.620;-8.640;2022-07-22T08:25:33;35.90;;;17.10;;
65982;SDS011;52740;40.620;-8.640;2022-07-22T08:27:34;37.92;;;17.05;;
65982;SDS011;52740;40.620;-8.640;2022-07-22T08:29:35;33.28;;;17.02;;
65982;SDS011;52740;40.620;-8.640;2022-07-22T08:31:36;38.17;;;18.17;;
65982;SDS011;52740;40.620;-8.640;2022-07-22T08:33:42;34.08;;;17.25;;
65982;SDS011;52740;40.620;-8.640;2022-07-22T08:35:43;32.53;;;16.83;;
65982;SDS011;52740;40.620;-8.640;2022-07-22T08:37:44;33.00;;;17.20;;
65982;SDS011;52740;40.620;-8.640;2022-07-22T08:39:46;33.72;;;16.38;;
65982;SDS011;52740;40.620;-8.640;2022-07-22T08:41:47;31.23;;;15.23;;
65982;SDS011;52740;40.620;-8.640;2022-07-22T08:43:49;33.80;;;16.52;;
65982;SDS011;52740;40.620;-8.640;2022-07-22T08:45:50;32.38;;;15.82;;
65982;SDS011;52740;40.620;-8.640;2022-07-22T08:47:51;31.30;;;16.33;;
65982;SDS011;52740;40.620;-8.640;2022-07-22T08:49:52;34.00;;;17.58;;
65982;SDS011;52740;40.620;-8.640;2022-07-22T08:52:12;30.10;;;17.10;;
65982;SDS011;52740;40.620;-8.640;2022-07-22T08:54:17;31.55;;;15.93;;
65982;SDS011;52740;40.620;-8.640;2022-07-22T08:56:18;35.45;;;16.38;;
65982;SDS011;52740;40.620;-8.640;2022-07-22T08:58:19;37.22;;;17.80;;
65982;SDS011;52740;40.620;-8.640;2022-07-22T09:00:21;37.88;;;18.40;;
65982;SDS011;52740;40.620;-8.640;2022-07-22T09:02:24;32.42;;;17.83;;
65982;SDS011;52740;40.620;-8.640;2022-07-22T09:04:26;34.30;;;17.27;;
65982;SDS011;52740;40.620;-8.640;2022-07-22T09:06:27;33.45;;;17.83;;
65982;SDS011;52740;40.620;-8.640;2022-07-22T09:08:49;37.20;;;18.75;;
65982;SDS011;52740;40.620;-8.640;2022-07-22T09:11:23;29.75;;;15.68;;
65982;SDS011;52740;40.620;-8.640;2022-07-22T09:13:58;40.40;;;15.40;;
65982;SDS011;52740;40.620;-8.640;2022-07-22T09:16:45;32.67;;;14.65;;
65982;SDS011;52740;40.620;-8.640;2022-07-22T09:19:11;28.30;;;14.38;;
65982;SDS011;52740;40.620;-8.640;2022-07-22T09:24:08;34.80;;;16.45;;
65982;SDS011;52740;40.620;-8.640;2022-07-22T09:26:32;30.02;;;15.15;;
65982;SDS011;52740;40.620;-8.640;2022-07-22T09:29:02;36.55;;;16.35;;
65982;SDS011;52740;40.620;-8.640;2022-07-22T09:31:04;37.13;;;18.60;;
65982;SDS011;52740;40.620;-8.640;2022-07-22T09:33:10;27.58;;;14.50;;
65982;SDS011;52740;40.620;-8.640;2022-07-22T09:35:15;25.70;;;14.80;;
65982;SDS011;52740;40.620;-8.640;2022-07-22T09:37:22;31.13;;;15.40;;
65982;SDS011;52740;40.620;-8.640;2022-07-22T09:39:24;25.63;;;14.30;;
65982;SDS011;52740;40.620;-8.640;2022-07-22T09:41:26;23.75;;;13.07;;
65982;SDS011;52740;40.620;-8.640;2022-07-22T09:43:27;27.70;;;14.77;;
65982;SDS011;52740;40.620;-8.640;2022-07-22T09:45:34;23.55;;;13.90;;
65982;SDS011;52740;40.620;-8.640;2022-07-22T09:47:35;26.70;;;14.18;;
65982;SDS011;52740;40.620;-8.640;2022-07-22T09:50:13;27.60;;;13.95;;
65982;SDS011;52740;40.620;-8.640;2022-07-22T09:52:40;23.48;;;12.80;;
65982;SDS011;52740;40.620;-8.640;2022-07-22T09:54:47;25.90;;;13.65;;
65982;SDS011;52740;40.620;-8.640;2022-07-22T09:56:48;25.25;;;13.80;;
65982;SDS011;52740;40.620;-8.640;2022-07-22T09:58:51;23.25;;;12.50;;
65982;SDS011;52740;40.620;-8.640;2022-07-22T10:01:00;24.83;;;12.90;;
65982;SDS011;52740;40.620;-8.640;2022-07-22T10:03:05;28.20;;;12.60;;
65982;SDS011;52740;40.620;-8.640;2022-07-22T10:05:08;25.65;;;14.15;;
65982;SDS011;52740;40.620;-8.640;2022-07-22T10:07:12;26.73;;;12.80;;
65982;SDS011;52740;40.620;-8.640;2022-07-22T10:09:14;24.67;;;13.27;;
65982;SDS011;52740;40.620;-8.640;2022-07-22T10:11:17;25.90;;;14.27;;
65982;SDS011;52740;40.620;-8.640;2022-07-22T10:13:19;23.88;;;12.32;;
65982;SDS011;52740;40.620;-8.640;2022-07-22T10:15:20;23.55;;;12.32;;
65982;SDS011;52740;40.620;-8.640;2022-07-22T10:17:22;24.60;;;12.95;;
65982;SDS011;52740;40.620;-8.640;2022-07-22T10:19:24;21.02;;;12.38;;
65982;SDS011;52740;40.620;-8.640;2022-07-22T10:21:31;31.35;;;13.45;;
65982;SDS011;52740;40.620;-8.640;2022-07-22T10:23:33;21.88;;;12.88;;
65982;SDS011;52740;40.620;-8.640;2022-07-22T10:25:58;35.47;;;14.40;;
65982;SDS011;52740;40.620;-8.640;2022-07-22T10:28:04;22.88;;;13.20;;
65982;SDS011;52740;40.620;-8.640;2022-07-22T10:30:10;25.50;;;12.93;;
65982;SDS011;52740;40.620;-8.640;2022-07-22T10:32:28;31.42;;;13.88;;
65982;SDS011;52740;40.620;-8.640;2022-07-22T10:34:30;27.23;;;14.68;;
65982;SDS011;52740;40.620;-8.640;2022-07-22T10:39:06;28.70;;;14.73;;
65982;SDS011;52740;40.620;-8.640;2022-07-22T10:41:07;28.08;;;12.80;;
65982;SDS011;52740;40.620;-8.640;2022-07-22T10:43:08;19.00;;;11.48;;
65982;SDS011;52740;40.620;-8.640;2022-07-22T10:45:10;26.13;;;13.13;;
65982;SDS011;52740;40.620;-8.640;2022-07-22T10:47:10;29.63;;;13.20;;
65982;SDS011;52740;40.620;-8.640;2022-07-22T10:49:11;24.10;;;12.10;;
65982;SDS011;52740;40.620;-8.640;2022-07-22T10:51:20;20.70;;;12.45;;
65982;SDS011;52740;40.620;-8.640;2022-07-22T10:53:23;30.40;;;13.10;;
65982;SDS011;52740;40.620;-8.640;2022-07-22T11:01:31;36.35;;;11.82;;
65982;SDS011;52740;40.620;-8.640;2022-07-22T11:03:38;22.92;;;12.00;;
65982;SDS011;52740;40.620;-8.640;2022-07-22T11:05:46;19.92;;;10.65;;
65982;SDS011;52740;40.620;-8.640;2022-07-22T11:08:08;19.92;;;11.13;;
65982;SDS011;52740;40.620;-8.640;2022-07-22T11:10:32;20.95;;;11.00;;
65982;SDS011;52740;40.620;-8.640;2022-07-22T11:12:38;18.98;;;11.32;;
65982;SDS011;52740;40.620;-8.640;2022-07-22T11:15:05;20.42;;;10.25;;
65982;SDS011;52740;40.620;-8.640;2022-07-22T11:17:10;20.65;;;10.95;;
65982;SDS011;52740;40.620;-8.640;2022-07-22T11:19:14;21.77;;;12.23;;
65982;SDS011;52740;40.620;-8.640;2022-07-22T11:21:32;23.80;;;11.02;;
65982;SDS011;52740;40.620;-8.640;2022-07-22T11:23:34;22.55;;;12.40;;
65982;SDS011;52740;40.620;-8.640;2022-07-22T11:25:35;24.42;;;11.00;;
65982;SDS011;52740;40.620;-8.640;2022-07-22T11:27:36;30.50;;;12.50;;
65982;SDS011;52740;40.620;-8.640;2022-07-22T11:29:38;22.70;;;11.50;;
65982;SDS011;52740;40.620;-8.640;2022-07-22T11:31:41;19.38;;;11.40;;
65982;SDS011;52740;40.620;-8.640;2022-07-22T11:33:41;19.17;;;8.30;;
65982;SDS011;52740;40.620;-8.640;2022-07-22T11:35:59;16.20;;;8.68;;
65982;SDS011;52740;40.620;-8.640;2022-07-22T11:38:01;24.63;;;9.20;;
65982;SDS011;52740;40.620;-8.640;2022-07-22T11:40:04;16.10;;;9.05;;
65982;SDS011;52740;40.620;-8.640;2022-07-22T11:44:07;18.50;;;7.85;;
65982;SDS011;52740;40.620;-8.640;2022-07-22T11:46:08;15.35;;;9.13;;
65982;SDS011;52740;40.620;-8.640;2022-07-22T11:48:09;16.27;;;8.50;;
65982;SDS011;52740;40.620;-8.640;2022-07-22T11:50:10;14.07;;;8.35;;
65982;SDS011;52740;40.620;-8.640;2022-07-22T11:52:11;16.15;;;8.23;;
65982;SDS011;52740;40.620;-8.640;2022-07-22T11:54:12;16.63;;;8.02;;
65982;SDS011;52740;40.620;-8.640;2022-07-22T11:56:13;12.98;;;7.45;;
65982;SDS011;52740;40.620;-8.640;2022-07-22T11:58:14;13.68;;;7.72;;
65982;SDS011;52740;40.620;-8.640;2022-07-22T12:00:17;13.35;;;6.43;;
65982;SDS011;52740;40.620;-8.640;2022-07-22T12:02:18;14.85;;;7.07;;
65982;SDS011;52740;40.620;-8.640;2022-07-22T12:04:21;14.65;;;6.53;;
65982;SDS011;52740;40.620;-8.640;2022-07-22T12:06:23;9.00;;;6.05;;
65982;SDS011;52740;40.620;-8.640;2022-07-22T12:08:26;10.00;;;6.38;;
65982;SDS011;52740;40.620;-8.640;2022-07-22T12:10:27;10.18;;;6.25;;
65982;SDS011;52740;40.620;-8.640;2022-07-22T12:12:41;13.90;;;9.13;;
65982;SDS011;52740;40.620;-8.640;2022-07-22T12:14:45;12.00;;;6.25;;
65982;SDS011;52740;40.620;-8.640;2022-07-22T12:16:58;10.10;;;6.72;;